Terminal Aerodrome Forecast
Issued by NWS

Home | Current Version | Previous Version | Text Only | Print | Product List | Glossary On
Versions: 1 2 3 4 5 6 7 8 9 10 11 12 13 14 15 16 17 18 19 20 21 22 23
000
FTUS43 KICT 241120
TAFRSL
TAF
KRSL 241120Z 2412/2512 06009KT 2SM -FZDZ SCT003 OVC005
     FM241700 31011KT P6SM SCT009 BKN015
     FM241900 30014KT P6SM SCT030
     FM250200 27008KT P6SM SKC=

USA.gov is the U.S. government's official web portal to all federal, state and local government web resources and services.